createdAt,value
2022-09-05T00:00:17.517Z,9.667968
2022-09-05T00:01:16.525Z,9.667954
2022-09-05T00:02:17.553Z,9.668005
2022-09-05T00:03:16.757Z,9.668036
2022-09-05T00:04:25.006Z,9.668013
2022-09-05T00:05:17.507Z,9.668008
2022-09-05T00:06:16.505Z,9.668000
2022-09-05T00:07:41.280Z,9.668004
2022-09-05T00:08:17.489Z,9.668018
2022-09-05T00:09:16.505Z,9.667993
2022-09-05T00:10:16.520Z,9.667957
2022-09-05T00:11:40.659Z,9.668002
2022-09-05T00:12:18.466Z,9.668020
2022-09-05T00:13:16.495Z,9.668010
2022-09-05T00:14:16.453Z,9.667970
2022-09-05T00:15:18.957Z,9.668021
2022-09-05T00:16:17.473Z,9.668041
2022-09-05T00:17:16.388Z,9.668056
2022-09-05T00:23:29.080Z,9.668030
2022-09-05T00:24:20.904Z,9.668068
2022-09-05T00:24:23.041Z,9.668015
2022-09-05T00:24:24.864Z,9.667941
2022-09-05T00:24:26.077Z,9.667966
2022-09-05T00:24:32.277Z,9.668009
2022-09-05T00:24:37.403Z,9.668016
2022-09-05T00:25:33.234Z,9.668066
2022-09-05T00:26:18.371Z,9.668002
2022-09-05T00:27:16.432Z,9.667990
2022-09-05T00:28:25.286Z,9.667985
2022-09-05T00:29:24.441Z,9.668017
2022-09-05T00:31:06.225Z,9.667993
2022-09-05T00:31:55.065Z,9.668047
2022-09-05T00:32:17.350Z,9.667961
2022-09-05T00:33:17.876Z,9.667986
2022-09-05T00:34:16.278Z,9.668009
2022-09-05T00:35:16.357Z,9.667985
2022-09-05T00:36:16.259Z,9.667977
2022-09-05T00:37:17.058Z,9.667973
2022-09-05T00:38:16.300Z,9.668005
2022-09-05T00:39:16.227Z,9.668013
2022-09-05T00:40:18.605Z,9.668075
2022-09-05T00:41:16.208Z,9.668049
2022-09-05T00:42:16.210Z,9.668048
2022-09-05T00:43:16.226Z,9.668001
2022-09-05T00:44:16.233Z,9.668015
2022-09-05T00:45:19.829Z,9.668077
2022-09-05T00:46:16.251Z,9.668041
2022-09-05T00:47:16.152Z,9.668011
2022-09-05T00:48:16.193Z,9.668044
2022-09-05T00:49:16.167Z,9.668044
2022-09-05T00:50:16.158Z,9.668036
2022-09-05T00:51:16.180Z,9.668047
2022-09-05T00:52:16.106Z,9.668067
2022-09-05T00:53:16.147Z,9.668048
2022-09-05T00:54:16.121Z,9.668094
2022-09-05T00:55:16.135Z,9.668039
2022-09-05T00:56:16.099Z,9.668032
2022-09-05T00:57:17.926Z,9.668015
2022-09-05T00:58:16.191Z,9.668005
2022-09-05T00:59:16.131Z,9.667958
2022-09-05T01:00:17.889Z,9.667996
2022-09-05T01:01:21.131Z,9.667974
2022-09-05T01:02:16.161Z,9.667996
2022-09-05T01:03:16.164Z,9.668035
2022-09-05T01:04:16.055Z,9.668065
2022-09-05T01:05:16.109Z,9.668049
2022-09-05T01:06:16.023Z,9.668060
2022-09-05T01:07:16.042Z,9.668013
2022-09-05T01:08:16.090Z,9.668145
2022-09-05T01:09:16.995Z,9.668121
2022-09-05T01:10:16.067Z,9.668078
2022-09-05T01:11:17.024Z,9.668015
2022-09-05T01:12:16.053Z,9.668021
2022-09-05T01:13:16.011Z,9.668077
2022-09-05T01:14:15.987Z,9.667983
2022-09-05T01:15:16.051Z,9.667998
2022-09-05T01:16:16.059Z,9.667982
2022-09-05T01:17:16.009Z,9.668023
2022-09-05T01:18:16.024Z,9.668014
2022-09-05T01:19:16.262Z,9.668018
2022-09-05T01:20:19.290Z,9.668043
2022-09-05T01:21:16.013Z,9.668054
2022-09-05T01:22:15.940Z,9.668007
2022-09-05T01:23:16.068Z,9.668031
2022-09-05T01:24:15.958Z,9.668020
2022-09-05T01:25:15.924Z,9.667866
2022-09-05T01:26:15.952Z,9.668054
2022-09-05T01:27:15.860Z,9.668043
2022-09-05T01:29:14.054Z,9.667976
2022-09-05T01:29:19.729Z,9.668029
2022-09-05T01:30:16.884Z,9.668018
2022-09-05T01:31:15.898Z,9.668015
2022-09-05T01:32:15.894Z,9.668016
2022-09-05T01:33:15.821Z,9.668026
2022-09-05T01:34:16.572Z,9.667969
2022-09-05T01:35:16.853Z,9.667966
2022-09-05T01:36:15.808Z,9.667990
2022-09-05T01:37:33.014Z,9.668020
2022-09-05T01:38:16.769Z,9.668006
2022-09-05T01:40:14.698Z,9.668009
2022-09-05T01:40:17.223Z,9.667944
2022-09-05T01:41:18.426Z,9.667971
2022-09-05T01:42:16.716Z,9.667946
2022-09-05T01:43:15.748Z,9.667963
2022-09-05T01:44:15.755Z,9.668010
2022-09-05T02:04:39.680Z,9.667954
2022-09-05T02:05:48.675Z,9.668036
2022-09-05T02:06:43.918Z,9.668065
2022-09-05T02:07:39.660Z,9.668029
2022-09-05T02:08:39.592Z,9.668016
2022-09-05T02:09:39.603Z,9.668064
2022-09-05T02:10:39.603Z,9.668024
2022-09-05T02:11:39.606Z,9.668057
2022-09-05T02:12:39.615Z,9.667967
2022-09-05T02:13:39.597Z,9.667965
2022-09-05T02:14:39.601Z,9.667987
2022-09-05T02:16:13.742Z,9.667953
2022-09-05T02:16:39.589Z,9.667981
2022-09-05T02:17:51.023Z,9.667964
2022-09-05T02:18:40.533Z,9.667993
2022-09-05T02:19:39.534Z,9.667977
2022-09-05T02:20:39.533Z,9.667966
2022-09-05T02:21:55.663Z,9.668037
2022-09-05T02:22:40.492Z,9.667925
2022-09-05T02:23:41.898Z,9.667937
2022-09-05T02:24:39.547Z,9.667918
2022-09-05T02:26:01.197Z,9.667961
2022-09-05T02:26:40.535Z,9.667984
2022-09-05T02:28:04.310Z,9.667919
2022-09-05T02:28:40.489Z,9.667933
2022-09-05T02:29:39.462Z,9.667941
2022-09-05T02:30:48.456Z,9.667913
2022-09-05T02:31:40.551Z,9.667949
2022-09-05T02:32:43.100Z,9.667992
2022-09-05T02:33:39.431Z,9.667994
2022-09-05T02:34:39.429Z,9.667985
2022-09-05T02:35:39.428Z,9.667940
2022-09-05T02:36:39.430Z,9.667908
2022-09-05T02:38:19.939Z,9.668038
2022-09-05T02:44:16.916Z,9.667964
2022-09-05T02:45:08.639Z,9.667931
2022-09-05T02:45:13.411Z,9.667976
2022-09-05T02:45:14.211Z,9.667973
2022-09-05T02:45:18.371Z,9.667930
2022-09-05T02:45:18.590Z,9.667993
2022-09-05T02:45:19.430Z,9.667998
2022-09-05T02:45:40.433Z,9.668024
2022-09-05T02:46:39.505Z,9.668012
2022-09-05T02:47:39.320Z,9.667977
2022-09-05T02:48:39.331Z,9.667984
2022-09-05T02:52:21.287Z,9.667954
2022-09-05T02:55:14.959Z,9.667956
2022-09-05T02:57:24.772Z,9.668010
2022-09-05T02:57:38.162Z,9.667935
2022-09-05T02:57:38.993Z,9.668021
2022-09-05T02:57:43.480Z,9.667987
2022-09-05T02:57:46.832Z,9.667973
2022-09-05T02:58:05.478Z,9.668017
2022-09-05T02:58:05.874Z,9.667992
2022-09-05T02:59:08.040Z,9.668027
2022-09-05T02:59:41.228Z,9.668015
2022-09-05T03:00:40.192Z,9.668014
2022-09-05T03:01:39.305Z,9.668015
2022-09-05T03:02:39.260Z,9.667987
2022-09-05T03:03:39.422Z,9.667966
2022-09-05T03:04:39.195Z,9.668017
2022-09-05T03:05:39.207Z,9.668019
2022-09-05T03:06:39.230Z,9.668028
2022-09-05T03:07:39.216Z,9.667993
2022-09-05T03:08:39.169Z,9.667999
2022-09-05T03:09:39.187Z,9.668008
2022-09-05T03:10:54.469Z,9.668019
2022-09-05T03:11:40.155Z,9.668005
2022-09-05T03:12:39.210Z,9.667982
2022-09-05T03:13:50.140Z,9.667974
2022-09-05T03:14:40.162Z,9.667989
2022-09-05T03:15:39.169Z,9.667995
2022-09-05T03:16:47.348Z,9.667996
2022-09-05T03:17:40.106Z,9.667963
2022-09-05T03:18:39.124Z,9.667996
2022-09-05T03:19:46.114Z,9.667996
2022-09-05T03:20:40.100Z,9.667998
2022-09-05T03:21:39.063Z,9.668041
2022-09-05T03:22:39.109Z,9.668035
2022-09-05T03:23:39.062Z,9.667987
2022-09-05T03:24:39.082Z,9.668027
2022-09-05T03:25:39.067Z,9.668017
2022-09-05T03:26:39.064Z,9.668002
2022-09-05T03:27:39.052Z,9.668010
2022-09-05T03:28:39.817Z,9.667963
2022-09-05T03:29:39.015Z,9.667949
2022-09-05T03:30:39.094Z,9.668011
2022-09-05T03:31:38.995Z,9.667944
2022-09-05T03:32:40.243Z,9.667935
2022-09-05T03:33:38.967Z,9.667959
2022-09-05T03:34:38.988Z,9.667957
2022-09-05T03:35:39.955Z,9.667955
2022-09-05T03:36:38.973Z,9.667987
2022-09-05T03:37:38.958Z,9.667992
2022-09-05T03:38:38.951Z,9.667962
2022-09-05T03:39:39.040Z,9.667960
2022-09-05T03:40:38.941Z,9.667926
2022-09-05T03:41:40.610Z,9.667913
2022-09-05T03:42:38.944Z,9.667926
2022-09-05T03:43:38.900Z,9.667947
2022-09-05T03:44:38.885Z,9.668007
2022-09-05T03:45:38.882Z,9.667988
2022-09-05T03:46:38.914Z,9.667953
2022-09-05T04:08:10.906Z,9.668056
2022-09-05T04:08:17.538Z,9.668012
2022-09-05T04:08:17.883Z,9.667988
2022-09-05T04:08:28.964Z,9.668036
2022-09-05T04:08:41.288Z,9.667980
2022-09-05T04:09:49.999Z,9.668032
2022-09-05T04:10:31.902Z,9.668080
2022-09-05T04:11:29.802Z,9.668053
2022-09-05T04:12:29.796Z,9.668080
2022-09-05T04:13:29.802Z,9.667894
2022-09-05T04:14:29.801Z,9.668009
2022-09-05T04:15:29.768Z,9.667984
2022-09-05T04:16:29.817Z,9.667985
2022-09-05T04:17:30.755Z,9.667911
2022-09-05T04:18:32.794Z,9.667974
2022-09-05T04:19:29.748Z,9.668026
2022-09-05T04:20:29.768Z,9.668032
2022-09-05T04:21:29.754Z,9.668028
2022-09-05T04:22:29.775Z,9.667997
2022-09-05T04:23:29.752Z,9.667950
2022-09-05T04:24:29.741Z,9.668004
2022-09-05T04:25:29.693Z,9.668019
2022-09-05T04:26:29.713Z,9.667994
2022-09-05T04:27:29.682Z,9.668003
2022-09-05T04:28:29.695Z,9.667982
2022-09-05T04:29:29.714Z,9.668021
2022-09-05T04:30:39.007Z,9.667974
2022-09-05T04:31:30.735Z,9.667996
2022-09-05T04:32:29.670Z,9.667945
2022-09-05T04:33:36.208Z,9.667969
2022-09-05T04:34:30.660Z,9.668003
2022-09-05T04:35:29.644Z,9.668000
2022-09-05T04:36:29.628Z,9.667932
2022-09-05T04:37:29.600Z,9.667904
2022-09-05T04:38:30.602Z,9.667994
2022-09-05T04:39:29.710Z,9.668048
2022-09-05T04:40:32.765Z,9.668051
2022-09-05T04:41:39.320Z,9.668004
2022-09-05T04:42:30.558Z,9.667994
2022-09-05T04:43:29.551Z,9.667973
2022-09-05T04:44:30.606Z,9.667964
2022-09-05T04:45:29.711Z,9.667973
2022-09-05T04:46:29.624Z,9.667981
2022-09-05T04:47:29.601Z,9.668017
2022-09-05T04:48:30.283Z,9.667962
2022-09-05T04:49:29.553Z,9.667968
2022-09-05T04:50:37.205Z,9.667945
2022-09-05T04:51:32.373Z,9.667945
2022-09-05T04:52:32.283Z,9.667936
2022-09-05T04:53:29.544Z,9.667902
2022-09-05T04:54:30.087Z,9.667980
2022-09-05T04:55:30.551Z,9.667949
2022-09-05T04:56:29.554Z,9.667913
2022-09-05T04:57:29.592Z,9.667932
2022-09-05T04:58:42.050Z,9.667920
2022-09-05T05:01:58.948Z,9.667912
2022-09-05T05:05:59.853Z,9.667900
2022-09-05T05:06:04.286Z,9.667942
2022-09-05T05:06:10.664Z,9.667930
2022-09-05T05:06:12.234Z,9.667907
2022-09-05T05:06:13.727Z,9.667927
2022-09-05T05:06:14.659Z,9.667932
2022-09-05T05:06:44.042Z,9.667898
2022-09-05T05:07:31.548Z,9.667870
2022-09-05T05:08:39.095Z,9.667910
2022-09-05T05:09:30.415Z,9.667935
2022-09-05T05:11:51.133Z,9.667960
2022-09-05T05:18:00.473Z,9.667934
2022-09-05T05:18:00.927Z,9.667943
2022-09-05T05:18:03.432Z,9.667993
2022-09-05T05:18:10.386Z,9.667971
2022-09-05T05:18:14.074Z,9.667944
2022-09-05T05:18:14.829Z,9.667923
2022-09-05T05:18:16.107Z,9.667950
2022-09-05T05:18:39.509Z,9.667993
2022-09-05T05:19:30.363Z,9.667980
2022-09-05T05:20:42.384Z,9.667965
2022-09-05T05:21:30.276Z,9.667975
2022-09-05T05:22:29.274Z,9.667962
2022-09-05T05:23:29.238Z,9.667995
2022-09-05T05:24:29.241Z,9.667979
2022-09-05T05:25:29.246Z,9.667959
2022-09-05T05:26:29.247Z,9.667972
2022-09-05T05:27:29.215Z,9.667955
2022-09-05T05:28:29.243Z,9.667984
2022-09-05T05:29:29.241Z,9.667974
2022-09-05T05:30:29.190Z,9.667970
2022-09-05T05:31:29.215Z,9.667969
2022-09-05T05:32:45.854Z,9.667960
2022-09-05T05:33:30.280Z,9.667950
2022-09-05T05:34:29.211Z,9.667942
2022-09-05T05:35:29.192Z,9.667956
2022-09-05T05:36:29.187Z,9.667932
2022-09-05T05:37:29.135Z,9.667966
2022-09-05T05:38:29.178Z,9.667974
2022-09-05T05:39:29.206Z,9.667994
2022-09-05T05:40:29.153Z,9.667990
2022-09-05T05:41:29.137Z,9.667968
2022-09-05T05:42:29.147Z,9.667985
2022-09-05T05:43:29.110Z,9.667963
2022-09-05T05:44:29.084Z,9.667944
2022-09-05T05:45:29.091Z,9.667882
2022-09-05T05:46:29.159Z,9.667964
2022-09-05T05:47:32.150Z,9.667904
2022-09-05T05:48:29.075Z,9.667938
2022-09-05T05:49:29.069Z,9.667943
2022-09-05T05:50:29.079Z,9.667987
2022-09-05T05:51:44.087Z,9.667954
2022-09-05T05:52:30.046Z,9.667986
2022-09-05T05:53:42.422Z,9.667955
2022-09-05T05:54:30.039Z,9.667912
2022-09-05T05:55:51.695Z,9.667954
2022-09-05T05:56:30.200Z,9.667909
2022-09-05T05:57:29.006Z,9.667880
2022-09-05T05:58:29.339Z,9.667980
2022-09-05T05:59:28.967Z,9.668015
2022-09-05T06:00:30.142Z,9.667965
2022-09-05T06:01:38.100Z,9.668007
2022-09-05T06:02:30.094Z,9.667997
2022-09-05T06:03:29.042Z,9.667936
2022-09-05T06:04:28.989Z,9.667994
2022-09-05T06:05:28.967Z,9.667953
2022-09-05T06:06:28.946Z,9.667934
2022-09-05T06:07:28.979Z,9.667959
2022-09-05T06:10:06.514Z,9.667931
2022-09-05T06:12:53.617Z,9.667950
2022-09-05T06:14:50.284Z,9.667956
2022-09-05T06:14:55.863Z,9.668003
2022-09-05T06:14:55.982Z,9.667932
2022-09-05T06:14:56.700Z,9.667957
2022-09-05T06:14:57.750Z,9.667957
2022-09-05T06:15:30.500Z,9.667940
2022-09-05T06:16:28.930Z,9.667996
2022-09-05T06:17:28.878Z,9.668007
2022-09-05T06:18:28.868Z,9.668018
2022-09-05T06:19:43.605Z,9.667992
2022-09-05T06:22:07.805Z,9.667980
2022-09-05T06:22:08.301Z,9.667995
2022-09-05T06:22:29.798Z,9.667970
2022-09-05T06:23:39.311Z,9.668018
2022-09-05T06:24:29.860Z,9.668013
2022-09-05T06:25:28.808Z,9.667995
2022-09-05T06:26:28.807Z,9.667961
2022-09-05T06:27:28.754Z,9.668020
2022-09-05T06:28:28.786Z,9.668031
2022-09-05T06:29:34.627Z,9.668018
2022-09-05T06:30:31.089Z,9.667972
2022-09-05T06:31:29.883Z,9.667983
2022-09-05T06:32:28.937Z,9.667988
2022-09-05T06:33:28.778Z,9.667959
2022-09-05T06:34:35.867Z,9.667963
2022-09-05T06:35:29.718Z,9.667967
2022-09-05T06:36:28.730Z,9.667956
2022-09-05T06:37:28.730Z,9.667962
2022-09-05T06:38:28.704Z,9.667997
2022-09-05T06:39:28.778Z,9.667970
2022-09-05T06:40:32.045Z,9.667940
2022-09-05T06:41:29.755Z,9.667953
2022-09-05T06:42:42.812Z,9.667960
2022-09-05T06:43:29.702Z,9.667975
2022-09-05T06:44:28.686Z,9.667959
2022-09-05T06:45:28.994Z,9.667968
2022-09-05T06:46:50.597Z,9.667946
2022-09-05T06:47:33.960Z,9.667937
2022-09-05T06:48:44.149Z,9.667932
2022-09-05T06:49:37.291Z,9.667940
2022-09-05T06:50:29.710Z,9.667947
2022-09-05T06:51:29.638Z,9.667913
2022-09-05T06:52:30.407Z,9.667898
2022-09-05T06:53:28.582Z,9.667920
2022-09-05T06:54:28.619Z,9.667893
2022-09-05T06:55:28.587Z,9.667911
2022-09-05T06:56:28.550Z,9.667959
2022-09-05T06:57:28.572Z,9.667938
2022-09-05T06:58:28.611Z,9.667933
2022-09-05T06:59:28.583Z,9.667903
2022-09-05T07:00:28.640Z,9.667935
2022-09-05T07:01:55.204Z,9.667948
2022-09-05T07:02:59.439Z,9.667919
2022-09-05T07:03:29.771Z,9.667924
2022-09-05T07:05:21.766Z,9.667905
2022-09-05T07:05:38.680Z,9.667892
2022-09-05T07:06:59.339Z,9.667960
2022-09-05T07:07:29.508Z,9.667917
2022-09-05T07:08:35.965Z,9.667965
2022-09-05T07:09:29.478Z,9.667984
2022-09-05T07:10:38.312Z,9.668001
2022-09-05T07:11:30.486Z,9.667985
2022-09-05T07:12:30.184Z,9.668005
2022-09-05T07:13:29.083Z,9.668024
2022-09-05T07:14:29.452Z,9.668004
2022-09-05T07:15:28.434Z,9.668013
2022-09-05T07:16:37.468Z,9.668017
2022-09-05T07:17:29.399Z,9.668001
2022-09-05T07:18:30.008Z,9.667992
2022-09-05T07:19:28.420Z,9.667969
2022-09-05T07:20:28.567Z,9.668018
2022-09-05T07:21:28.399Z,9.667979
2022-09-05T07:22:47.925Z,9.667970
2022-09-05T07:23:52.740Z,9.667944
2022-09-05T07:24:53.499Z,9.667954
2022-09-05T07:25:31.630Z,9.667941
2022-09-05T07:26:29.360Z,9.667952
2022-09-05T07:27:29.350Z,9.667997
2022-09-05T07:28:30.517Z,9.667976
2022-09-05T07:29:28.322Z,9.667954
2022-09-05T07:30:28.348Z,9.667971
2022-09-05T07:31:37.922Z,9.668019
2022-09-05T07:32:29.313Z,9.668015
2022-09-05T07:33:28.433Z,9.667966
2022-09-05T07:34:28.281Z,9.668001
2022-09-05T07:35:28.274Z,9.667993
2022-09-05T07:36:28.293Z,9.667965
2022-09-05T07:37:28.351Z,9.667964
2022-09-05T07:38:48.345Z,9.667953
2022-09-05T07:39:29.648Z,9.667976
2022-09-05T07:40:29.369Z,9.667983
2022-09-05T07:41:28.282Z,9.667970
2022-09-05T07:42:28.247Z,9.667918
2022-09-05T07:43:28.352Z,9.667966
2022-09-05T07:44:28.281Z,9.667954
2022-09-05T07:45:28.248Z,9.667978
2022-09-05T07:46:28.220Z,9.667913
2022-09-05T07:47:28.225Z,9.667873
2022-09-05T07:48:35.053Z,9.667969
2022-09-05T07:49:31.118Z,9.668010
2022-09-05T07:52:32.563Z,9.668012
2022-09-05T07:55:26.246Z,9.667974
2022-09-05T07:56:49.701Z,9.667953
2022-09-05T07:56:58.765Z,9.667935
2022-09-05T07:57:04.794Z,9.667952
2022-09-05T07:57:06.157Z,9.667988
2022-09-05T07:57:10.790Z,9.667984
2022-09-05T07:57:31.689Z,9.668093
2022-09-05T07:58:29.123Z,9.668098
2022-09-05T07:59:28.173Z,9.668165
2022-09-05T08:00:29.676Z,9.668054
2022-09-05T08:01:28.190Z,9.668192
2022-09-05T08:02:28.122Z,9.668108
2022-09-05T08:03:28.073Z,9.668148
2022-09-05T08:04:28.066Z,9.668137
2022-09-05T08:05:35.199Z,9.668200
2022-09-05T08:07:45.859Z,9.668079
2022-09-05T08:07:48.854Z,9.668186
2022-09-05T08:08:29.103Z,9.668089
2022-09-05T08:10:09.204Z,9.668157
2022-09-05T08:10:31.435Z,9.668132
2022-09-05T08:11:29.027Z,9.668109
2022-09-05T08:12:28.411Z,9.668078
2022-09-05T08:13:28.925Z,9.668139
2022-09-05T08:14:45.269Z,9.668095
2022-09-05T08:16:10.379Z,9.668069
2022-09-05T08:16:29.967Z,9.668066
2022-09-05T08:17:30.140Z,9.668087
2022-09-05T08:18:28.546Z,9.668147
2022-09-05T08:19:27.979Z,9.668069
2022-09-05T08:20:27.999Z,9.668108
2022-09-05T08:21:28.094Z,9.668125
2022-09-05T08:22:27.962Z,9.668088
2022-09-05T08:23:27.911Z,9.668089
2022-09-05T08:24:28.948Z,9.668095
2022-09-05T08:25:37.587Z,9.668104
2022-09-05T08:26:29.546Z,9.668075
2022-09-05T08:27:28.546Z,9.668052
2022-09-05T08:28:39.290Z,9.668076
2022-09-05T08:29:28.925Z,9.668023
2022-09-05T08:30:28.168Z,9.668067
2022-09-05T08:31:28.956Z,9.668124
2022-09-05T08:32:32.130Z,9.668160
2022-09-05T08:33:28.841Z,9.668141
2022-09-05T08:34:31.510Z,9.668121
2022-09-05T08:35:28.880Z,9.668123
2022-09-05T08:36:27.822Z,9.668125
2022-09-05T08:37:27.858Z,9.668112
2022-09-05T08:38:27.843Z,9.668061
2022-09-05T08:39:28.902Z,9.668092
2022-09-05T08:40:27.902Z,9.668079
2022-09-05T08:41:50.403Z,9.668077
2022-09-05T08:42:28.875Z,9.668120
2022-09-05T08:46:35.412Z,9.668069
2022-09-05T08:46:40.343Z,9.668031
2022-09-05T08:46:40.903Z,9.668031
2022-09-05T08:46:44.583Z,9.668025
2022-09-05T08:47:31.923Z,9.668031
2022-09-05T08:48:28.831Z,9.668011
2022-09-05T08:49:37.035Z,9.668037
2022-09-05T08:50:28.872Z,9.668081
2022-09-05T08:51:27.799Z,9.668058
2022-09-05T08:52:27.742Z,9.668095
2022-09-05T08:53:45.903Z,9.668073
2022-09-05T08:54:28.812Z,9.668069
2022-09-05T08:55:27.725Z,9.668046
2022-09-05T08:56:27.743Z,9.668036
2022-09-05T08:57:27.738Z,9.668056
2022-09-05T08:58:27.719Z,9.668062
2022-09-05T08:59:33.045Z,9.668042
2022-09-05T09:00:31.411Z,9.668055
2022-09-05T09:01:27.698Z,9.668080
2022-09-05T09:02:47.646Z,9.668054
2022-09-05T09:03:28.789Z,9.668053
2022-09-05T09:05:01.629Z,9.668050
2022-09-05T09:06:12.290Z,9.668092
2022-09-05T09:06:28.625Z,9.668071
2022-09-05T09:07:47.971Z,9.668090
2022-09-05T09:08:28.652Z,9.668066
2022-09-05T09:09:27.694Z,9.668070
2022-09-05T09:10:27.681Z,9.668053
2022-09-05T09:11:27.641Z,9.668091
2022-09-05T09:12:27.850Z,9.668074
2022-09-05T09:13:28.111Z,9.668063
2022-09-05T09:14:30.593Z,9.668056
2022-09-05T09:15:27.607Z,9.668022
2022-09-05T09:16:28.610Z,9.668058
2022-09-05T09:17:29.297Z,9.668072
2022-09-05T09:18:27.574Z,9.667999
2022-09-05T09:19:29.030Z,9.668014
2022-09-05T09:20:27.646Z,9.668007
2022-09-05T09:21:27.627Z,9.668028
2022-09-05T09:22:28.616Z,9.668019
2022-09-05T09:23:31.915Z,9.667969
2022-09-05T09:24:27.603Z,9.667950
2022-09-05T09:25:30.641Z,9.667994
2022-09-05T09:26:28.551Z,9.668020
2022-09-05T09:27:36.427Z,9.668048
2022-09-05T09:28:49.488Z,9.668044
2022-09-05T09:29:28.510Z,9.668063
2022-09-05T09:30:27.554Z,9.668124
2022-09-05T09:31:27.585Z,9.668102
2022-09-05T09:32:27.497Z,9.668075
2022-09-05T09:33:27.563Z,9.668138
2022-09-05T09:34:27.529Z,9.668085
2022-09-05T09:35:27.509Z,9.668118
2022-09-05T09:36:27.495Z,9.668118
2022-09-05T09:37:35.578Z,9.668108
2022-09-05T09:38:28.460Z,9.668071
2022-09-05T09:39:39.204Z,9.668095
2022-09-05T09:40:28.437Z,9.668107
2022-09-05T09:41:27.473Z,9.668065
2022-09-05T09:42:33.062Z,9.668129
2022-09-05T09:43:28.444Z,9.668136
2022-09-05T09:44:27.493Z,9.668139
2022-09-05T09:45:28.963Z,9.668131
2022-09-05T09:46:27.479Z,9.668041
2022-09-05T09:47:27.422Z,9.668118
2022-09-05T09:48:27.398Z,9.668106
2022-09-05T09:49:27.404Z,9.668083
2022-09-05T09:50:27.375Z,9.668111
2022-09-05T09:51:27.422Z,9.668167
2022-09-05T09:52:27.401Z,9.668087
2022-09-05T09:53:27.352Z,9.668082
2022-09-05T09:54:27.376Z,9.668107
2022-09-05T09:55:27.337Z,9.668082
2022-09-05T09:56:27.349Z,9.668040
2022-09-05T09:57:27.340Z,9.668060
2022-09-05T09:58:29.188Z,9.668111
2022-09-05T09:59:27.335Z,9.668098
2022-09-05T10:00:27.305Z,9.668066
2022-09-05T10:01:36.043Z,9.668026
2022-09-05T10:04:57.930Z,9.668047
2022-09-05T10:10:04.376Z,9.668068
2022-09-05T10:10:39.559Z,9.668035
2022-09-05T10:10:44.211Z,9.668053
2022-09-05T10:10:45.153Z,9.667999
2022-09-05T10:10:45.890Z,9.668003
2022-09-05T10:10:48.844Z,9.668008
2022-09-05T10:10:57.332Z,9.668040
2022-09-05T10:10:57.644Z,9.668002
2022-09-05T10:12:29.309Z,9.668052
2022-09-05T10:13:27.459Z,9.668076
2022-09-05T10:14:47.832Z,9.668083
2022-09-05T10:15:31.648Z,9.668084
2022-09-05T10:16:27.317Z,9.668068
2022-09-05T10:17:27.205Z,9.668070
2022-09-05T10:18:27.207Z,9.668044
2022-09-05T10:20:29.641Z,9.668035
2022-09-05T10:21:28.167Z,9.668010
2022-09-05T10:22:36.534Z,9.667996
2022-09-05T10:23:29.161Z,9.667994
2022-09-05T10:24:27.245Z,9.668033
2022-09-05T10:25:28.052Z,9.668030
2022-09-05T10:26:27.518Z,9.668052
2022-09-05T10:27:27.139Z,9.668034
2022-09-05T10:28:27.163Z,9.668058
2022-09-05T10:29:36.532Z,9.668072
2022-09-05T10:31:09.582Z,9.668057
2022-09-05T10:33:02.434Z,9.668069
2022-09-05T10:35:07.489Z,9.668026
2022-09-05T10:35:16.769Z,9.668018
2022-09-05T10:35:16.836Z,9.668030
2022-09-05T10:35:28.447Z,9.668012
2022-09-05T10:36:27.160Z,9.668015
2022-09-05T10:37:27.077Z,9.668001
2022-09-05T10:38:27.122Z,9.668025
2022-09-05T10:39:27.171Z,9.668014
2022-09-05T10:40:27.077Z,9.668004
2022-09-05T10:41:27.054Z,9.668005
2022-09-05T10:42:27.072Z,9.667975
2022-09-05T10:43:27.070Z,9.667986
2022-09-05T10:44:27.115Z,9.667977
2022-09-05T10:45:31.362Z,9.668027
2022-09-05T10:46:49.410Z,9.667951
2022-09-05T10:47:29.042Z,9.667966
2022-09-05T10:48:27.026Z,9.667962
2022-09-05T10:49:30.493Z,9.667948
2022-09-05T10:50:27.058Z,9.668009
2022-09-05T10:51:28.269Z,9.667970
2022-09-05T10:52:27.020Z,9.668027
2022-09-05T10:53:27.042Z,9.668041
2022-09-05T10:54:28.059Z,9.668016
2022-09-05T10:55:26.991Z,9.668022
2022-09-05T10:56:28.623Z,9.667969
2022-09-05T10:57:26.918Z,9.667992
2022-09-05T10:58:40.361Z,9.667999
2022-09-05T11:01:19.350Z,9.668000
2022-09-05T11:02:16.496Z,9.667995
2022-09-05T11:02:30.041Z,9.667997
2022-09-05T11:02:33.593Z,9.668006
2022-09-05T11:03:29.286Z,9.668004
2022-09-05T11:04:26.976Z,9.668030
2022-09-05T11:05:27.493Z,9.668046
2022-09-05T11:06:26.914Z,9.668063
2022-09-05T11:07:29.804Z,9.668051
2022-09-05T11:08:26.855Z,9.667989
2022-09-05T11:09:26.833Z,9.667986
2022-09-05T11:10:26.833Z,9.668079
2022-09-05T11:11:34.068Z,9.668039
2022-09-05T11:12:27.849Z,9.668041
2022-09-05T11:13:27.018Z,9.668027
2022-09-05T11:14:27.399Z,9.668010
2022-09-05T11:15:26.793Z,9.667966
2022-09-05T11:16:26.858Z,9.667976
2022-09-05T11:17:26.780Z,9.668012
2022-09-05T11:18:27.121Z,9.667980
2022-09-05T11:19:27.839Z,9.668017
2022-09-05T11:20:34.959Z,9.667979
2022-09-05T11:21:27.806Z,9.667990
2022-09-05T11:22:26.735Z,9.668045
2022-09-05T11:23:26.776Z,9.667995
2022-09-05T11:24:27.665Z,9.668052
2022-09-05T11:25:39.681Z,9.668077
2022-09-05T11:26:27.723Z,9.668034
2022-09-05T11:27:26.723Z,9.668069
2022-09-05T11:28:27.025Z,9.667996
2022-09-05T11:29:26.705Z,9.667969
2022-09-05T11:30:29.938Z,9.667993
2022-09-05T11:31:34.080Z,9.668040
2022-09-05T11:37:44.384Z,9.668069
2022-09-05T11:39:46.814Z,9.668047
2022-09-05T11:39:50.616Z,9.668049
2022-09-05T11:39:51.297Z,9.668022
2022-09-05T11:40:00.115Z,9.668023
2022-09-05T11:40:06.455Z,9.668041
2022-09-05T11:40:09.797Z,9.668048
2022-09-05T11:40:10.549Z,9.668036
2022-09-05T11:41:29.588Z,9.668043
2022-09-05T11:42:26.607Z,9.668057
2022-09-05T11:43:26.609Z,9.668033
2022-09-05T11:44:27.396Z,9.668015
2022-09-05T11:45:27.589Z,9.668056
2022-09-05T11:46:27.833Z,9.668049
2022-09-05T11:47:30.285Z,9.668029
2022-09-05T11:48:27.547Z,9.668076
2022-09-05T11:49:26.576Z,9.668057
2022-09-05T11:50:26.527Z,9.668031
2022-09-05T11:51:33.874Z,9.668065
2022-09-05T11:52:27.546Z,9.668096
2022-09-05T11:53:26.518Z,9.668072
2022-09-05T11:54:26.550Z,9.668081
2022-09-05T11:55:26.515Z,9.668045
2022-09-05T11:56:28.850Z,9.668083
2022-09-05T11:57:33.143Z,9.668055
2022-09-05T11:58:43.492Z,9.668106
2022-09-05T11:59:33.511Z,9.668075
2022-09-05T12:00:31.372Z,9.668031
2022-09-05T12:01:43.047Z,9.668008
2022-09-05T12:02:27.552Z,9.668049
2022-09-05T12:03:57.287Z,9.668099
2022-09-05T12:04:27.482Z,9.668044
2022-09-05T12:05:48.523Z,9.668078
2022-09-05T12:06:27.462Z,9.668125
2022-09-05T12:07:31.906Z,9.668103
2022-09-05T12:08:28.762Z,9.668053
2022-09-05T12:09:26.436Z,9.668098
2022-09-05T12:10:43.396Z,9.668086
2022-09-05T12:11:27.440Z,9.668059
2022-09-05T12:12:38.660Z,9.668046
2022-09-05T12:13:29.346Z,9.668078
2022-09-05T12:14:26.424Z,9.668087
2022-09-05T12:15:26.391Z,9.668077
2022-09-05T12:16:26.859Z,9.668049
2022-09-05T12:17:34.950Z,9.668057
2022-09-05T12:18:27.644Z,9.668120
2022-09-05T12:19:26.347Z,9.668059
2022-09-05T12:20:26.390Z,9.668123
2022-09-05T12:21:26.361Z,9.668053
2022-09-05T12:22:26.328Z,9.668110
2022-09-05T12:23:39.916Z,9.668088